sensor_id;sensor_type;location;lat;lon;timestamp;temperature;humidity
27128;DHT22;14660;49.008;8.390;2023-04-24T00:01:04;13.10;99.90
27128;DHT22;14660;49.008;8.390;2023-04-24T00:03:34;13.00;99.90
27128;DHT22;14660;49.008;8.390;2023-04-24T00:06:01;13.10;99.90
27128;DHT22;14660;49.008;8.390;2023-04-24T00:08:29;13.10;99.90
27128;DHT22;14660;49.008;8.390;2023-04-24T00:10:56;13.20;99.90
27128;DHT22;14660;49.008;8.390;2023-04-24T00:13:23;13.10;99.90
27128;DHT22;14660;49.008;8.390;2023-04-24T00:15:50;13.10;99.90
27128;DHT22;14660;49.008;8.390;2023-04-24T00:18:17;13.20;99.90
27128;DHT22;14660;49.008;8.390;2023-04-24T00:20:43;13.10;99.90
27128;DHT22;14660;49.008;8.390;2023-04-24T00:23:10;13.10;99.90
27128;DHT22;14660;49.008;8.390;2023-04-24T00:25:37;13.20;99.90
27128;DHT22;14660;49.008;8.390;2023-04-24T00:28:04;13.30;99.90
27128;DHT22;14660;49.008;8.390;2023-04-24T00:30:30;13.20;99.90
27128;DHT22;14660;49.008;8.390;2023-04-24T00:32:58;13.40;99.90
27128;DHT22;14660;49.008;8.390;2023-04-24T00:35:25;13.30;99.90
27128;DHT22;14660;49.008;8.390;2023-04-24T00:37:51;13.20;99.90
27128;DHT22;14660;49.008;8.390;2023-04-24T00:40:18;13.20;99.90
27128;DHT22;14660;49.008;8.390;2023-04-24T00:42:45;13.20;99.90
27128;DHT22;14660;49.008;8.390;2023-04-24T00:45:12;13.20;99.90
27128;DHT22;14660;49.008;8.390;2023-04-24T00:47:41;13.20;99.90
27128;DHT22;14660;49.008;8.390;2023-04-24T00:50:08;13.30;99.90
27128;DHT22;14660;49.008;8.390;2023-04-24T00:52:35;13.30;99.90
27128;DHT22;14660;49.008;8.390;2023-04-24T00:55:03;13.30;99.90
27128;DHT22;14660;49.008;8.390;2023-04-24T00:57:30;13.30;99.90
27128;DHT22;14660;49.008;8.390;2023-04-24T00:59:57;13.40;99.90
27128;DHT22;14660;49.008;8.390;2023-04-24T01:02:24;13.30;99.90
27128;DHT22;14660;49.008;8.390;2023-04-24T01:04:52;13.30;99.90
27128;DHT22;14660;49.008;8.390;2023-04-24T01:07:21;13.20;99.90
27128;DHT22;14660;49.008;8.390;2023-04-24T01:09:48;13.30;99.90
27128;DHT22;14660;49.008;8.390;2023-04-24T01:12:17;13.40;99.90
27128;DHT22;14660;49.008;8.390;2023-04-24T01:14:45;13.30;99.90
27128;DHT22;14660;49.008;8.390;2023-04-24T01:17:12;13.30;99.90
27128;DHT22;14660;49.008;8.390;2023-04-24T01:19:39;13.20;99.90
27128;DHT22;14660;49.008;8.390;2023-04-24T01:22:14;13.20;99.90
27128;DHT22;14660;49.008;8.390;2023-04-24T01:24:42;13.20;99.90
27128;DHT22;14660;49.008;8.390;2023-04-24T01:27:10;13.20;99.90
27128;DHT22;14660;49.008;8.390;2023-04-24T01:29:37;13.10;99.90
27128;DHT22;14660;49.008;8.390;2023-04-24T01:32:04;13.20;99.90
27128;DHT22;14660;49.008;8.390;2023-04-24T01:34:32;13.20;99.90
27128;DHT22;14660;49.008;8.390;2023-04-24T01:36:59;13.20;99.90
27128;DHT22;14660;49.008;8.390;2023-04-24T01:39:27;13.10;99.90
27128;DHT22;14660;49.008;8.390;2023-04-24T01:41:55;13.10;99.90
27128;DHT22;14660;49.008;8.390;2023-04-24T01:44:23;13.10;99.90
27128;DHT22;14660;49.008;8.390;2023-04-24T01:46:49;13.20;99.90
27128;DHT22;14660;49.008;8.390;2023-04-24T01:49:16;13.30;99.90
27128;DHT22;14660;49.008;8.390;2023-04-24T01:51:43;13.20;99.90
27128;DHT22;14660;49.008;8.390;2023-04-24T01:54:10;13.10;99.90
27128;DHT22;14660;49.008;8.390;2023-04-24T01:56:40;13.10;99.90
27128;DHT22;14660;49.008;8.390;2023-04-24T01:59:12;12.90;99.90
27128;DHT22;14660;49.008;8.390;2023-04-24T02:01:39;12.90;99.90
27128;DHT22;14660;49.008;8.390;2023-04-24T02:04:07;12.80;99.90
27128;DHT22;14660;49.008;8.390;2023-04-24T02:06:33;12.80;99.90
27128;DHT22;14660;49.008;8.390;2023-04-24T02:09:00;12.70;99.90
27128;DHT22;14660;49.008;8.390;2023-04-24T02:11:27;12.80;99.90
27128;DHT22;14660;49.008;8.390;2023-04-24T02:13:54;12.70;99.90
27128;DHT22;14660;49.008;8.390;2023-04-24T02:16:22;12.80;99.90
27128;DHT22;14660;49.008;8.390;2023-04-24T02:18:48;12.70;99.90
27128;DHT22;14660;49.008;8.390;2023-04-24T02:21:15;12.70;99.90
27128;DHT22;14660;49.008;8.390;2023-04-24T02:23:42;12.80;99.90
27128;DHT22;14660;49.008;8.390;2023-04-24T02:26:09;12.70;99.90
27128;DHT22;14660;49.008;8.390;2023-04-24T02:28:36;12.70;99.90
27128;DHT22;14660;49.008;8.390;2023-04-24T02:31:04;12.80;99.90
27128;DHT22;14660;49.008;8.390;2023-04-24T02:33:31;12.90;99.90
27128;DHT22;14660;49.008;8.390;2023-04-24T02:35:58;12.90;99.90
27128;DHT22;14660;49.008;8.390;2023-04-24T02:38:26;13.00;99.90
27128;DHT22;14660;49.008;8.390;2023-04-24T02:40:52;12.90;99.90
27128;DHT22;14660;49.008;8.390;2023-04-24T02:43:19;12.90;99.90
27128;DHT22;14660;49.008;8.390;2023-04-24T02:45:46;13.00;99.90
27128;DHT22;14660;49.008;8.390;2023-04-24T02:48:13;13.00;99.90
27128;DHT22;14660;49.008;8.390;2023-04-24T02:50:40;13.00;99.90
27128;DHT22;14660;49.008;8.390;2023-04-24T02:53:06;13.00;99.90
27128;DHT22;14660;49.008;8.390;2023-04-24T02:55:33;13.10;99.90
27128;DHT22;14660;49.008;8.390;2023-04-24T02:58:00;13.10;99.90
27128;DHT22;14660;49.008;8.390;2023-04-24T03:00:27;12.90;99.90
27128;DHT22;14660;49.008;8.390;2023-04-24T03:02:54;12.80;99.90
27128;DHT22;14660;49.008;8.390;2023-04-24T03:05:21;12.80;99.90
27128;DHT22;14660;49.008;8.390;2023-04-24T03:07:48;12.80;99.90
27128;DHT22;14660;49.008;8.390;2023-04-24T03:10:14;12.70;99.90
27128;DHT22;14660;49.008;8.390;2023-04-24T03:12:41;12.70;99.90
27128;DHT22;14660;49.008;8.390;2023-04-24T03:15:09;12.50;99.90
27128;DHT22;14660;49.008;8.390;2023-04-24T03:17:35;12.60;99.90
27128;DHT22;14660;49.008;8.390;2023-04-24T03:20:03;12.50;99.90
27128;DHT22;14660;49.008;8.390;2023-04-24T03:22:31;12.40;99.90
27128;DHT22;14660;49.008;8.390;2023-04-24T03:24:59;12.30;99.90
27128;DHT22;14660;49.008;8.390;2023-04-24T03:27:26;12.30;99.90
27128;DHT22;14660;49.008;8.390;2023-04-24T03:29:53;12.30;99.90
27128;DHT22;14660;49.008;8.390;2023-04-24T03:32:23;12.30;99.90
27128;DHT22;14660;49.008;8.390;2023-04-24T03:34:50;12.50;99.90
27128;DHT22;14660;49.008;8.390;2023-04-24T03:37:20;12.30;99.90
27128;DHT22;14660;49.008;8.390;2023-04-24T03:39:46;12.20;99.90
27128;DHT22;14660;49.008;8.390;2023-04-24T03:42:13;12.20;99.90
27128;DHT22;14660;49.008;8.390;2023-04-24T03:44:40;12.30;99.90
27128;DHT22;14660;49.008;8.390;2023-04-24T03:47:07;12.30;99.90
27128;DHT22;14660;49.008;8.390;2023-04-24T03:49:33;12.20;99.90
27128;DHT22;14660;49.008;8.390;2023-04-24T03:52:00;12.10;99.90
27128;DHT22;14660;49.008;8.390;2023-04-24T03:54:27;12.20;99.90
27128;DHT22;14660;49.008;8.390;2023-04-24T03:56:54;12.20;99.90
27128;DHT22;14660;49.008;8.390;2023-04-24T03:59:21;12.20;99.90
27128;DHT22;14660;49.008;8.390;2023-04-24T04:01:47;12.10;99.90
27128;DHT22;14660;49.008;8.390;2023-04-24T04:04:14;12.10;99.90
27128;DHT22;14660;49.008;8.390;2023-04-24T04:06:41;12.00;99.90
27128;DHT22;14660;49.008;8.390;2023-04-24T04:09:09;12.00;99.90
27128;DHT22;14660;49.008;8.390;2023-04-24T04:11:37;12.10;99.90
27128;DHT22;14660;49.008;8.390;2023-04-24T04:14:03;12.00;99.90
27128;DHT22;14660;49.008;8.390;2023-04-24T04:16:30;11.90;99.90
27128;DHT22;14660;49.008;8.390;2023-04-24T04:18:56;11.90;99.90
27128;DHT22;14660;49.008;8.390;2023-04-24T04:21:23;11.90;99.90
27128;DHT22;14660;49.008;8.390;2023-04-24T04:23:49;11.80;99.90
27128;DHT22;14660;49.008;8.390;2023-04-24T04:26:17;11.80;99.90
27128;DHT22;14660;49.008;8.390;2023-04-24T04:28:45;11.70;99.90
27128;DHT22;14660;49.008;8.390;2023-04-24T04:31:14;11.80;99.90
27128;DHT22;14660;49.008;8.390;2023-04-24T04:33:42;11.80;99.90
27128;DHT22;14660;49.008;8.390;2023-04-24T04:36:09;11.70;99.90
27128;DHT22;14660;49.008;8.390;2023-04-24T04:38:36;11.50;99.90
27128;DHT22;14660;49.008;8.390;2023-04-24T04:41:03;11.50;99.90
27128;DHT22;14660;49.008;8.390;2023-04-24T04:43:30;11.40;99.90
27128;DHT22;14660;49.008;8.390;2023-04-24T04:45:57;11.50;99.90
27128;DHT22;14660;49.008;8.390;2023-04-24T04:48:24;11.30;99.90
27128;DHT22;14660;49.008;8.390;2023-04-24T04:50:51;11.50;99.90
27128;DHT22;14660;49.008;8.390;2023-04-24T04:53:18;11.50;99.90
27128;DHT22;14660;49.008;8.390;2023-04-24T04:55:45;11.40;99.90
27128;DHT22;14660;49.008;8.390;2023-04-24T04:58:12;11.50;99.90
27128;DHT22;14660;49.008;8.390;2023-04-24T05:00:39;11.50;99.90
27128;DHT22;14660;49.008;8.390;2023-04-24T05:03:06;11.40;99.90
27128;DHT22;14660;49.008;8.390;2023-04-24T05:05:32;11.40;99.90
27128;DHT22;14660;49.008;8.390;2023-04-24T05:07:59;11.50;99.90
27128;DHT22;14660;49.008;8.390;2023-04-24T05:10:26;11.50;99.90
27128;DHT22;14660;49.008;8.390;2023-04-24T05:12:53;11.70;99.90
27128;DHT22;14660;49.008;8.390;2023-04-24T05:15:20;11.80;99.90
27128;DHT22;14660;49.008;8.390;2023-04-24T05:17:47;11.80;99.90
27128;DHT22;14660;49.008;8.390;2023-04-24T05:20:14;11.90;99.90
27128;DHT22;14660;49.008;8.390;2023-04-24T05:22:41;12.10;99.90
27128;DHT22;14660;49.008;8.390;2023-04-24T05:25:08;12.30;99.90
27128;DHT22;14660;49.008;8.390;2023-04-24T05:27:35;12.50;99.90
27128;DHT22;14660;49.008;8.390;2023-04-24T05:30:02;12.60;99.90
27128;DHT22;14660;49.008;8.390;2023-04-24T05:32:29;12.70;99.90
27128;DHT22;14660;49.008;8.390;2023-04-24T05:34:55;12.80;99.90
27128;DHT22;14660;49.008;8.390;2023-04-24T05:37:22;12.70;99.90
27128;DHT22;14660;49.008;8.390;2023-04-24T05:39:49;12.60;99.90
27128;DHT22;14660;49.008;8.390;2023-04-24T05:42:16;12.70;99.90
27128;DHT22;14660;49.008;8.390;2023-04-24T05:44:43;12.60;99.90
27128;DHT22;14660;49.008;8.390;2023-04-24T05:47:10;12.50;99.90
27128;DHT22;14660;49.008;8.390;2023-04-24T05:49:36;12.40;99.90
27128;DHT22;14660;49.008;8.390;2023-04-24T05:52:03;12.40;99.90
27128;DHT22;14660;49.008;8.390;2023-04-24T05:54:31;12.50;99.90
27128;DHT22;14660;49.008;8.390;2023-04-24T05:56:58;12.50;99.90
27128;DHT22;14660;49.008;8.390;2023-04-24T05:59:25;12.60;99.90
27128;DHT22;14660;49.008;8.390;2023-04-24T06:01:52;12.60;99.90
27128;DHT22;14660;49.008;8.390;2023-04-24T06:04:19;12.70;99.90
27128;DHT22;14660;49.008;8.390;2023-04-24T06:06:46;12.70;99.90
27128;DHT22;14660;49.008;8.390;2023-04-24T06:09:12;12.70;99.90
27128;DHT22;14660;49.008;8.390;2023-04-24T06:11:39;12.80;99.90
27128;DHT22;14660;49.008;8.390;2023-04-24T06:14:06;12.70;99.90
27128;DHT22;14660;49.008;8.390;2023-04-24T06:16:33;12.80;99.90
27128;DHT22;14660;49.008;8.390;2023-04-24T06:19:00;12.80;99.90
27128;DHT22;14660;49.008;8.390;2023-04-24T06:21:25;12.80;99.90
27128;DHT22;14660;49.008;8.390;2023-04-24T06:23:52;12.90;99.90
27128;DHT22;14660;49.008;8.390;2023-04-24T06:26:19;12.80;99.90
27128;DHT22;14660;49.008;8.390;2023-04-24T06:28:46;12.70;99.90
27128;DHT22;14660;49.008;8.390;2023-04-24T06:31:13;12.70;99.90
27128;DHT22;14660;49.008;8.390;2023-04-24T06:33:40;12.70;99.90
27128;DHT22;14660;49.008;8.390;2023-04-24T06:36:08;12.80;99.90
27128;DHT22;14660;49.008;8.390;2023-04-24T06:38:34;12.80;99.90
27128;DHT22;14660;49.008;8.390;2023-04-24T06:41:01;12.90;99.90
27128;DHT22;14660;49.008;8.390;2023-04-24T06:43:29;12.90;99.90
27128;DHT22;14660;49.008;8.390;2023-04-24T06:45:57;12.90;99.90
27128;DHT22;14660;49.008;8.390;2023-04-24T06:48:25;13.00;99.90
27128;DHT22;14660;49.008;8.390;2023-04-24T06:50:52;13.10;99.90
27128;DHT22;14660;49.008;8.390;2023-04-24T06:53:19;13.30;99.90
27128;DHT22;14660;49.008;8.390;2023-04-24T06:55:46;13.50;99.90
27128;DHT22;14660;49.008;8.390;2023-04-24T06:58:13;13.80;99.90
27128;DHT22;14660;49.008;8.390;2023-04-24T07:00:41;13.90;99.90
27128;DHT22;14660;49.008;8.390;2023-04-24T07:03:07;13.80;99.90
27128;DHT22;14660;49.008;8.390;2023-04-24T07:05:34;13.50;99.90
27128;DHT22;14660;49.008;8.390;2023-04-24T07:08:01;13.40;99.90
27128;DHT22;14660;49.008;8.390;2023-04-24T07:10:29;13.30;99.90
27128;DHT22;14660;49.008;8.390;2023-04-24T07:12:56;13.70;99.90
27128;DHT22;14660;49.008;8.390;2023-04-24T07:15:23;13.90;99.90
27128;DHT22;14660;49.008;8.390;2023-04-24T07:17:50;13.90;99.90
27128;DHT22;14660;49.008;8.390;2023-04-24T07:20:17;13.80;99.90
27128;DHT22;14660;49.008;8.390;2023-04-24T07:22:44;13.80;99.90
27128;DHT22;14660;49.008;8.390;2023-04-24T07:25:11;13.50;99.90
27128;DHT22;14660;49.008;8.390;2023-04-24T07:27:38;13.40;99.90
27128;DHT22;14660;49.008;8.390;2023-04-24T07:30:05;13.30;99.90
27128;DHT22;14660;49.008;8.390;2023-04-24T07:32:33;13.40;99.90
27128;DHT22;14660;49.008;8.390;2023-04-24T07:35:00;13.50;99.90
27128;DHT22;14660;49.008;8.390;2023-04-24T07:37:28;13.60;99.90
27128;DHT22;14660;49.008;8.390;2023-04-24T07:39:55;13.70;99.90
27128;DHT22;14660;49.008;8.390;2023-04-24T07:42:22;13.70;99.90
27128;DHT22;14660;49.008;8.390;2023-04-24T07:44:49;13.70;99.90
27128;DHT22;14660;49.008;8.390;2023-04-24T07:47:16;13.70;99.90
27128;DHT22;14660;49.008;8.390;2023-04-24T07:49:43;13.70;99.90
27128;DHT22;14660;49.008;8.390;2023-04-24T07:52:10;13.70;99.90
27128;DHT22;14660;49.008;8.390;2023-04-24T07:54:36;13.70;99.90
27128;DHT22;14660;49.008;8.390;2023-04-24T07:57:04;13.60;99.90
27128;DHT22;14660;49.008;8.390;2023-04-24T07:59:33;13.50;99.90
27128;DHT22;14660;49.008;8.390;2023-04-24T08:02:00;13.30;99.90
27128;DHT22;14660;49.008;8.390;2023-04-24T08:04:28;13.10;99.90
27128;DHT22;14660;49.008;8.390;2023-04-24T08:06:54;12.80;99.90
27128;DHT22;14660;49.008;8.390;2023-04-24T08:09:21;12.80;99.90
27128;DHT22;14660;49.008;8.390;2023-04-24T08:11:48;12.80;99.90
27128;DHT22;14660;49.008;8.390;2023-04-24T08:14:15;12.90;99.90
27128;DHT22;14660;49.008;8.390;2023-04-24T08:16:42;13.10;99.90
27128;DHT22;14660;49.008;8.390;2023-04-24T08:19:09;13.40;99.90
27128;DHT22;14660;49.008;8.390;2023-04-24T08:21:36;13.70;99.90
27128;DHT22;14660;49.008;8.390;2023-04-24T08:24:03;13.70;99.90
27128;DHT22;14660;49.008;8.390;2023-04-24T08:26:33;13.80;99.90
27128;DHT22;14660;49.008;8.390;2023-04-24T08:29:00;13.60;99.90
27128;DHT22;14660;49.008;8.390;2023-04-24T08:31:27;13.60;99.90
27128;DHT22;14660;49.008;8.390;2023-04-24T08:33:54;13.30;99.90
27128;DHT22;14660;49.008;8.390;2023-04-24T08:36:21;13.40;99.90
27128;DHT22;14660;49.008;8.390;2023-04-24T08:38:48;13.40;99.90
27128;DHT22;14660;49.008;8.390;2023-04-24T08:41:15;13.40;99.90
27128;DHT22;14660;49.008;8.390;2023-04-24T08:43:46;13.30;99.90
27128;DHT22;14660;49.008;8.390;2023-04-24T08:46:13;13.30;99.90
27128;DHT22;14660;49.008;8.390;2023-04-24T08:48:42;13.30;99.90
27128;DHT22;14660;49.008;8.390;2023-04-24T08:51:09;13.30;99.90
27128;DHT22;14660;49.008;8.390;2023-04-24T08:53:37;13.30;99.90
27128;DHT22;14660;49.008;8.390;2023-04-24T08:56:05;13.60;99.90
27128;DHT22;14660;49.008;8.390;2023-04-24T08:58:33;14.10;99.90
27128;DHT22;14660;49.008;8.390;2023-04-24T09:01:00;14.70;99.90
27128;DHT22;14660;49.008;8.390;2023-04-24T09:03:28;14.80;99.90
27128;DHT22;14660;49.008;8.390;2023-04-24T09:05:55;14.80;99.90
27128;DHT22;14660;49.008;8.390;2023-04-24T09:08:25;14.80;99.90
27128;DHT22;14660;49.008;8.390;2023-04-24T09:10:52;14.70;99.90
27128;DHT22;14660;49.008;8.390;2023-04-24T09:13:20;14.70;99.90
27128;DHT22;14660;49.008;8.390;2023-04-24T09:15:47;14.60;99.90
27128;DHT22;14660;49.008;8.390;2023-04-24T09:18:14;14.40;99.90
27128;DHT22;14660;49.008;8.390;2023-04-24T09:21:09;14.40;99.90
27128;DHT22;14660;49.008;8.390;2023-04-24T09:23:36;14.30;99.90
27128;DHT22;14660;49.008;8.390;2023-04-24T09:26:04;14.30;99.90
27128;DHT22;14660;49.008;8.390;2023-04-24T09:28:38;14.20;99.90
27128;DHT22;14660;49.008;8.390;2023-04-24T09:31:23;14.10;99.90
27128;DHT22;14660;49.008;8.390;2023-04-24T09:34:04;14.30;99.90
27128;DHT22;14660;49.008;8.390;2023-04-24T09:36:51;14.30;99.90
27128;DHT22;14660;49.008;8.390;2023-04-24T09:39:19;14.30;99.90
27128;DHT22;14660;49.008;8.390;2023-04-24T09:41:53;14.20;99.90
27128;DHT22;14660;49.008;8.390;2023-04-24T09:44:22;14.10;99.90
27128;DHT22;14660;49.008;8.390;2023-04-24T09:46:54;14.00;99.90
27128;DHT22;14660;49.008;8.390;2023-04-24T09:49:31;14.00;99.90
27128;DHT22;14660;49.008;8.390;2023-04-24T09:52:09;13.90;99.90
27128;DHT22;14660;49.008;8.390;2023-04-24T09:54:37;14.00;99.90
27128;DHT22;14660;49.008;8.390;2023-04-24T09:57:07;14.10;99.90
27128;DHT22;14660;49.008;8.390;2023-04-24T09:59:34;14.20;99.90
27128;DHT22;14660;49.008;8.390;2023-04-24T10:02:01;14.40;99.90
27128;DHT22;14660;49.008;8.390;2023-04-24T10:04:29;14.40;99.90
27128;DHT22;14660;49.008;8.390;2023-04-24T10:06:57;14.40;99.90
27128;DHT22;14660;49.008;8.390;2023-04-24T10:09:25;14.50;99.90
27128;DHT22;14660;49.008;8.390;2023-04-24T10:11:54;14.50;99.90
27128;DHT22;14660;49.008;8.390;2023-04-24T10:14:22;14.60;99.90
27128;DHT22;14660;49.008;8.390;2023-04-24T10:16:53;14.60;99.90
27128;DHT22;14660;49.008;8.390;2023-04-24T10:19:26;14.80;99.90
27128;DHT22;14660;49.008;8.390;2023-04-24T10:21:53;14.80;99.90
27128;DHT22;14660;49.008;8.390;2023-04-24T10:24:22;14.50;99.90
27128;DHT22;14660;49.008;8.390;2023-04-24T10:26:48;14.40;99.90
27128;DHT22;14660;49.008;8.390;2023-04-24T10:29:16;14.20;99.90
27128;DHT22;14660;49.008;8.390;2023-04-24T10:31:44;14.10;99.90
27128;DHT22;14660;49.008;8.390;2023-04-24T10:34:16;13.90;99.90
27128;DHT22;14660;49.008;8.390;2023-04-24T10:36:51;13.90;99.90
27128;DHT22;14660;49.008;8.390;2023-04-24T10:39:19;13.90;99.90
27128;DHT22;14660;49.008;8.390;2023-04-24T10:41:46;13.70;99.90
27128;DHT22;14660;49.008;8.390;2023-04-24T10:44:16;13.80;99.90
27128;DHT22;14660;49.008;8.390;2023-04-24T10:46:47;13.70;99.90
27128;DHT22;14660;49.008;8.390;2023-04-24T10:49:31;13.70;99.90
27128;DHT22;14660;49.008;8.390;2023-04-24T10:52:02;13.70;99.90
27128;DHT22;14660;49.008;8.390;2023-04-24T10:54:49;13.70;99.90
27128;DHT22;14660;49.008;8.390;2023-04-24T10:57:34;13.90;99.90
27128;DHT22;14660;49.008;8.390;2023-04-24T11:00:20;13.90;99.90
27128;DHT22;14660;49.008;8.390;2023-04-24T11:02:48;13.80;99.90
27128;DHT22;14660;49.008;8.390;2023-04-24T11:05:21;13.70;99.90
27128;DHT22;14660;49.008;8.390;2023-04-24T11:08:21;13.80;99.90
27128;DHT22;14660;49.008;8.390;2023-04-24T11:11:17;13.80;99.90
27128;DHT22;14660;49.008;8.390;2023-04-24T11:14:03;13.80;99.90
27128;DHT22;14660;49.008;8.390;2023-04-24T11:16:52;13.50;99.90
27128;DHT22;14660;49.008;8.390;2023-04-24T11:19:22;13.50;99.90
27128;DHT22;14660;49.008;8.390;2023-04-24T11:22:14;13.70;99.90
27128;DHT22;14660;49.008;8.390;2023-04-24T11:24:50;13.80;99.90
27128;DHT22;14660;49.008;8.390;2023-04-24T11:27:22;13.80;99.90
27128;DHT22;14660;49.008;8.390;2023-04-24T11:30:06;13.70;99.90
27128;DHT22;14660;49.008;8.390;2023-04-24T11:32:51;13.70;99.90
27128;DHT22;14660;49.008;8.390;2023-04-24T11:35:24;13.70;99.90
27128;DHT22;14660;49.008;8.390;2023-04-24T11:37:52;13.90;99.90
27128;DHT22;14660;49.008;8.390;2023-04-24T11:40:21;14.20;99.90
27128;DHT22;14660;49.008;8.390;2023-04-24T11:42:51;14.30;99.90
27128;DHT22;14660;49.008;8.390;2023-04-24T11:45:35;14.30;99.90
27128;DHT22;14660;49.008;8.390;2023-04-24T11:48:03;14.20;99.90
27128;DHT22;14660;49.008;8.390;2023-04-24T11:50:29;14.30;99.90
27128;DHT22;14660;49.008;8.390;2023-04-24T11:52:56;14.40;99.90
27128;DHT22;14660;49.008;8.390;2023-04-24T11:55:41;14.30;99.90
27128;DHT22;14660;49.008;8.390;2023-04-24T11:58:08;14.20;99.90
27128;DHT22;14660;49.008;8.390;2023-04-24T12:00:34;14.30;99.90
27128;DHT22;14660;49.008;8.390;2023-04-24T12:03:10;14.40;99.90
27128;DHT22;14660;49.008;8.390;2023-04-24T12:05:38;14.30;99.90
27128;DHT22;14660;49.008;8.390;2023-04-24T12:08:06;14.30;99.90
27128;DHT22;14660;49.008;8.390;2023-04-24T12:10:33;14.50;99.90
27128;DHT22;14660;49.008;8.390;2023-04-24T12:13:01;14.60;99.90
27128;DHT22;14660;49.008;8.390;2023-04-24T12:15:28;14.60;99.90
27128;DHT22;14660;49.008;8.390;2023-04-24T12:17:56;14.70;99.90
27128;DHT22;14660;49.008;8.390;2023-04-24T12:20:30;14.90;99.90
27128;DHT22;14660;49.008;8.390;2023-04-24T12:22:59;15.00;99.90
27128;DHT22;14660;49.008;8.390;2023-04-24T12:25:33;15.00;99.90
27128;DHT22;14660;49.008;8.390;2023-04-24T12:28:19;14.90;99.90
27128;DHT22;14660;49.008;8.390;2023-04-24T12:30:51;15.00;99.90
27128;DHT22;14660;49.008;8.390;2023-04-24T12:33:19;15.00;99.90
27128;DHT22;14660;49.008;8.390;2023-04-24T12:35:47;14.90;99.90
27128;DHT22;14660;49.008;8.390;2023-04-24T12:38:15;15.00;99.90
27128;DHT22;14660;49.008;8.390;2023-04-24T12:40:46;15.00;99.90
27128;DHT22;14660;49.008;8.390;2023-04-24T12:43:30;15.10;99.90
27128;DHT22;14660;49.008;8.390;2023-04-24T12:45:57;15.30;99.90
27128;DHT22;14660;49.008;8.390;2023-04-24T12:48:28;15.20;99.90
27128;DHT22;14660;49.008;8.390;2023-04-24T12:50:58;15.30;99.90
27128;DHT22;14660;49.008;8.390;2023-04-24T12:53:28;15.40;99.90
27128;DHT22;14660;49.008;8.390;2023-04-24T12:55:56;15.50;99.90
27128;DHT22;14660;49.008;8.390;2023-04-24T12:58:24;15.60;99.90
27128;DHT22;14660;49.008;8.390;2023-04-24T13:00:51;15.60;99.90
27128;DHT22;14660;49.008;8.390;2023-04-24T13:03:18;15.70;99.90
27128;DHT22;14660;49.008;8.390;2023-04-24T13:05:44;15.50;99.90
27128;DHT22;14660;49.008;8.390;2023-04-24T13:08:10;15.30;99.90
27128;DHT22;14660;49.008;8.390;2023-04-24T13:10:37;15.10;99.90
27128;DHT22;14660;49.008;8.390;2023-04-24T13:13:04;15.10;99.90
27128;DHT22;14660;49.008;8.390;2023-04-24T13:15:31;15.10;99.90
27128;DHT22;14660;49.008;8.390;2023-04-24T13:17:58;15.20;99.90
27128;DHT22;14660;49.008;8.390;2023-04-24T13:20:24;15.30;99.90
27128;DHT22;14660;49.008;8.390;2023-04-24T13:22:52;15.20;99.90
27128;DHT22;14660;49.008;8.390;2023-04-24T13:25:19;15.30;99.90
27128;DHT22;14660;49.008;8.390;2023-04-24T13:27:46;15.20;99.90
27128;DHT22;14660;49.008;8.390;2023-04-24T13:30:13;15.30;99.90
27128;DHT22;14660;49.008;8.390;2023-04-24T13:32:40;15.30;99.90
27128;DHT22;14660;49.008;8.390;2023-04-24T13:35:08;15.30;99.90
27128;DHT22;14660;49.008;8.390;2023-04-24T13:37:34;15.40;99.90
27128;DHT22;14660;49.008;8.390;2023-04-24T13:40:01;15.40;99.90
27128;DHT22;14660;49.008;8.390;2023-04-24T13:42:28;15.60;99.90
27128;DHT22;14660;49.008;8.390;2023-04-24T13:44:55;15.60;99.90
27128;DHT22;14660;49.008;8.390;2023-04-24T13:47:22;15.80;99.90
27128;DHT22;14660;49.008;8.390;2023-04-24T13:49:49;15.80;99.90
27128;DHT22;14660;49.008;8.390;2023-04-24T13:52:16;15.70;99.90
27128;DHT22;14660;49.008;8.390;2023-04-24T13:54:43;15.50;99.90
27128;DHT22;14660;49.008;8.390;2023-04-24T13:57:10;15.50;99.90
27128;DHT22;14660;49.008;8.390;2023-04-24T13:59:36;15.40;99.90
27128;DHT22;14660;49.008;8.390;2023-04-24T14:02:03;15.50;99.90
27128;DHT22;14660;49.008;8.390;2023-04-24T14:04:30;15.40;99.90
27128;DHT22;14660;49.008;8.390;2023-04-24T14:06:57;15.30;99.90
27128;DHT22;14660;49.008;8.390;2023-04-24T14:09:24;15.30;99.90
27128;DHT22;14660;49.008;8.390;2023-04-24T14:11:51;15.30;99.90
27128;DHT22;14660;49.008;8.390;2023-04-24T14:14:18;15.40;99.90
27128;DHT22;14660;49.008;8.390;2023-04-24T14:16:45;15.20;99.90
27128;DHT22;14660;49.008;8.390;2023-04-24T14:19:12;14.90;99.90
27128;DHT22;14660;49.008;8.390;2023-04-24T14:21:39;14.40;99.90
27128;DHT22;14660;49.008;8.390;2023-04-24T14:24:07;14.10;99.90
27128;DHT22;14660;49.008;8.390;2023-04-24T14:26:34;13.70;99.90
27128;DHT22;14660;49.008;8.390;2023-04-24T14:29:01;13.50;99.90
27128;DHT22;14660;49.008;8.390;2023-04-24T14:31:28;13.50;99.90
27128;DHT22;14660;49.008;8.390;2023-04-24T14:33:55;13.60;99.90
27128;DHT22;14660;49.008;8.390;2023-04-24T14:36:22;13.50;99.90
27128;DHT22;14660;49.008;8.390;2023-04-24T14:38:49;13.60;99.90
27128;DHT22;14660;49.008;8.390;2023-04-24T14:41:16;13.80;99.90
27128;DHT22;14660;49.008;8.390;2023-04-24T14:43:43;13.90;99.90
27128;DHT22;14660;49.008;8.390;2023-04-24T14:46:10;13.90;99.90
27128;DHT22;14660;49.008;8.390;2023-04-24T14:48:36;13.90;99.90
27128;DHT22;14660;49.008;8.390;2023-04-24T14:51:03;14.00;99.90
27128;DHT22;14660;49.008;8.390;2023-04-24T14:53:30;14.10;99.90
27128;DHT22;14660;49.008;8.390;2023-04-24T14:55:57;14.30;99.90
27128;DHT22;14660;49.008;8.390;2023-04-24T14:58:24;14.40;99.90
27128;DHT22;14660;49.008;8.390;2023-04-24T15:00:51;14.50;99.90
27128;DHT22;14660;49.008;8.390;2023-04-24T15:03:20;14.30;99.90
27128;DHT22;14660;49.008;8.390;2023-04-24T15:05:48;14.40;99.90
27128;DHT22;14660;49.008;8.390;2023-04-24T15:08:15;14.30;99.90
27128;DHT22;14660;49.008;8.390;2023-04-24T15:10:42;14.40;99.90
27128;DHT22;14660;49.008;8.390;2023-04-24T15:13:08;14.40;99.90
27128;DHT22;14660;49.008;8.390;2023-04-24T15:15:35;14.40;99.90
27128;DHT22;14660;49.008;8.390;2023-04-24T15:18:04;14.40;99.90
27128;DHT22;14660;49.008;8.390;2023-04-24T15:20:31;14.40;99.90
27128;DHT22;14660;49.008;8.390;2023-04-24T15:22:58;14.40;99.90
27128;DHT22;14660;49.008;8.390;2023-04-24T15:25:26;14.30;99.90
27128;DHT22;14660;49.008;8.390;2023-04-24T15:27:53;14.30;99.90
27128;DHT22;14660;49.008;8.390;2023-04-24T15:30:20;14.30;99.90
27128;DHT22;14660;49.008;8.390;2023-04-24T15:32:47;14.20;99.90
27128;DHT22;14660;49.008;8.390;2023-04-24T15:35:14;14.20;99.90
27128;DHT22;14660;49.008;8.390;2023-04-24T15:37:41;14.20;99.90